Time;durP1;ratioP1;P1;durP2;ratioP2;P2;SDS_P1;SDS_P2;PMS_P1;PMS_P2;Temp;Humidity;BMP_temperature;BMP_pressure;BME280_temperature;BME280_humidity;BME280_pressure;Samples;Min_cycle;Max_cycle;Signal;HPM_P1;HPM_P2
2022/08/18 00:01:40;;;;;;;20.55;8.82;;;;;;;;;;5064369;28;20071;-65
2022/08/18 00:04:09;;;;;;;15.50;7.70;;;;;;;;;;5065068;28;20499;-65
2022/08/18 00:06:36;;;;;;;12.00;7.15;;;;;;;;;;5065841;28;20053;-65
2022/08/18 00:09:05;;;;;;;19.83;8.85;;;;;;;;;;5064023;28;20411;-65
2022/08/18 00:11:34;;;;;;;18.15;7.60;;;;;;;;;;5058740;28;20052;-65
2022/08/18 00:14:01;;;;;;;21.42;8.60;;;;;;;;;;5065606;28;20037;-65
2022/08/18 00:16:28;;;;;;;20.13;8.10;;;;;;;;;;5057054;28;20408;-65
2022/08/18 00:18:55;;;;;;;15.18;7.00;;;;;;;;;;5064460;28;20118;-65
2022/08/18 00:21:24;;;;;;;18.52;6.90;;;;;;;;;;5064918;28;20079;-65
2022/08/18 00:23:51;;;;;;;19.17;7.32;;;;;;;;;;5061871;28;20048;-65
2022/08/18 00:26:18;;;;;;;21.77;7.47;;;;;;;;;;5060256;28;20060;-65
2022/08/18 00:28:46;;;;;;;17.52;6.90;;;;;;;;;;5062163;28;20048;-65
2022/08/18 00:31:13;;;;;;;18.45;7.15;;;;;;;;;;5059801;28;20056;-65
2022/08/18 00:33:42;;;;;;;18.45;6.78;;;;;;;;;;5060234;28;20408;-65
2022/08/18 00:36:10;;;;;;;14.55;6.53;;;;;;;;;;5065109;28;20112;-65
2022/08/18 00:38:39;;;;;;;19.15;7.28;;;;;;;;;;5064891;28;20771;-65
2022/08/18 00:41:07;;;;;;;17.90;7.15;;;;;;;;;;5066465;28;20048;-65
2022/08/18 00:43:39;;;;;;;15.68;7.25;;;;;;;;;;5062690;28;20055;-65
2022/08/18 00:46:08;;;;;;;16.08;6.35;;;;;;;;;;5064410;28;20049;-65
2022/08/18 00:48:35;;;;;;;21.15;7.25;;;;;;;;;;5065983;28;20044;-65
2022/08/18 00:51:04;;;;;;;17.90;6.75;;;;;;;;;;5076496;28;20048;-65
2022/08/18 00:53:34;;;;;;;13.85;6.45;;;;;;;;;;5061524;28;20559;-65
2022/08/18 00:56:05;;;;;;;13.48;6.07;;;;;;;;;;5058043;28;20131;-65
2022/08/18 00:58:35;;;;;;;17.80;6.47;;;;;;;;;;5065692;28;20045;-65
2022/08/18 01:01:04;;;;;;;17.70;6.00;;;;;;;;;;5062116;28;20060;-65
2022/08/18 01:03:32;;;;;;;20.00;7.50;;;;;;;;;;5064893;28;20044;-65
2022/08/18 01:06:02;;;;;;;17.77;6.75;;;;;;;;;;5059597;28;20195;-65
2022/08/18 01:08:29;;;;;;;16.75;6.70;;;;;;;;;;5058330;28;20052;-65
2022/08/18 01:10:58;;;;;;;13.73;6.15;;;;;;;;;;5063844;28;20397;-65
2022/08/18 01:13:29;;;;;;;14.25;6.22;;;;;;;;;;5064941;28;20361;-65
2022/08/18 01:15:56;;;;;;;14.48;6.15;;;;;;;;;;5062378;28;20393;-65
2022/08/18 01:23:58;;;;;;;15.85;6.45;;;;;;;;;;5055185;28;20206;-65
2022/08/18 01:26:25;;;;;;;18.38;6.90;;;;;;;;;;5064146;28;20083;-65
2022/08/18 01:28:53;;;;;;;18.50;7.30;;;;;;;;;;5058258;28;20060;-65
2022/08/18 01:31:32;;;;;;;13.48;7.03;;;;;;;;;;5059605;28;20045;-65
2022/08/18 01:33:59;;;;;;;11.27;5.97;;;;;;;;;;5058931;28;20044;-65
2022/08/18 01:36:27;;;;;;;15.27;6.20;;;;;;;;;;5066262;28;20690;-65
2022/08/18 01:38:54;;;;;;;14.90;5.78;;;;;;;;;;5067283;28;20041;-65
2022/08/18 01:41:24;;;;;;;15.18;7.55;;;;;;;;;;5065669;28;20544;-65
2022/08/18 01:43:52;;;;;;;16.77;6.55;;;;;;;;;;5052603;28;20044;-65
2022/08/18 01:46:20;;;;;;;16.75;7.82;;;;;;;;;;5063113;28;20056;-65
2022/08/18 01:48:48;;;;;;;15.50;6.32;;;;;;;;;;5055660;28;20490;-65
2022/08/18 01:51:16;;;;;;;12.65;7.25;;;;;;;;;;5059905;28;20579;-65
2022/08/18 01:53:45;;;;;;;12.00;6.05;;;;;;;;;;5063874;28;20446;-65
2022/08/18 01:56:13;;;;;;;16.80;6.18;;;;;;;;;;5062571;28;20059;-65
2022/08/18 01:58:42;;;;;;;16.17;6.80;;;;;;;;;;5063746;28;20075;-65
2022/08/18 02:01:12;;;;;;;18.67;6.93;;;;;;;;;;5054182;28;20491;-65
2022/08/18 02:03:41;;;;;;;19.02;6.97;;;;;;;;;;5064733;28;20137;-65
2022/08/18 02:06:10;;;;;;;23.85;7.00;;;;;;;;;;5053846;28;20060;-65
2022/08/18 02:08:37;;;;;;;19.30;6.38;;;;;;;;;;5058978;28;20065;-65
2022/08/18 02:11:05;;;;;;;19.52;8.57;;;;;;;;;;5059922;28;20516;-65
2022/08/18 02:13:32;;;;;;;18.05;6.82;;;;;;;;;;5060083;28;20060;-65
2022/08/18 02:16:03;;;;;;;16.50;6.72;;;;;;;;;;5054630;28;20044;-65
2022/08/18 02:18:31;;;;;;;21.65;6.75;;;;;;;;;;5057328;28;20094;-65
2022/08/18 02:21:00;;;;;;;17.60;6.35;;;;;;;;;;5055994;28;20094;-65
2022/08/18 02:23:27;;;;;;;12.77;6.63;;;;;;;;;;5072488;28;20110;-65
2022/08/18 02:25:54;;;;;;;22.35;6.45;;;;;;;;;;5058144;28;20098;-65
2022/08/18 02:28:21;;;;;;;20.75;7.78;;;;;;;;;;5065407;28;20044;-65
2022/08/18 02:30:48;;;;;;;18.70;6.85;;;;;;;;;;5055219;28;20094;-65
2022/08/18 02:33:17;;;;;;;17.58;6.68;;;;;;;;;;5061023;28;20106;-65
2022/08/18 02:35:45;;;;;;;20.08;7.15;;;;;;;;;;5064776;28;20052;-65
2022/08/18 02:38:12;;;;;;;17.30;6.90;;;;;;;;;;5064279;28;20082;-65
2022/08/18 02:40:39;;;;;;;16.77;6.95;;;;;;;;;;5060596;28;20704;-65
2022/08/18 02:43:07;;;;;;;15.20;7.32;;;;;;;;;;5059634;28;20140;-65
2022/08/18 02:45:35;;;;;;;21.33;7.55;;;;;;;;;;5053638;28;20065;-65
2022/08/18 02:48:02;;;;;;;18.83;7.20;;;;;;;;;;5062868;28;20506;-65
2022/08/18 02:50:31;;;;;;;17.92;6.20;;;;;;;;;;5058805;28;20403;-65
2022/08/18 02:52:58;;;;;;;14.77;6.80;;;;;;;;;;5059082;28;20061;-65
2022/08/18 02:55:28;;;;;;;16.58;6.28;;;;;;;;;;5060069;28;20052;-65
2022/08/18 02:57:55;;;;;;;20.05;6.30;;;;;;;;;;5062867;28;20438;-65
2022/08/18 03:00:22;;;;;;;22.63;6.93;;;;;;;;;;5058018;28;20126;-65
2022/08/18 03:02:50;;;;;;;16.35;7.50;;;;;;;;;;5064317;28;20056;-65
2022/08/18 03:05:17;;;;;;;13.48;6.53;;;;;;;;;;5058290;28;20107;-65
2022/08/18 03:07:46;;;;;;;13.25;6.63;;;;;;;;;;5061354;28;20057;-65
2022/08/18 03:10:14;;;;;;;14.60;6.32;;;;;;;;;;5065682;28;20056;-65
2022/08/18 03:12:42;;;;;;;14.45;6.47;;;;;;;;;;5063805;28;20055;-65
2022/08/18 03:15:11;;;;;;;14.85;4.97;;;;;;;;;;5061924;28;20110;-65
2022/08/18 03:17:38;;;;;;;14.25;6.18;;;;;;;;;;5067973;28;20140;-65
2022/08/18 03:20:06;;;;;;;18.48;6.75;;;;;;;;;;5064435;28;20385;-65
2022/08/18 03:22:33;;;;;;;16.02;5.95;;;;;;;;;;5065297;28;20061;-65
2022/08/18 03:25:02;;;;;;;19.52;7.10;;;;;;;;;;5063392;28;20044;-65
2022/08/18 03:27:29;;;;;;;10.88;6.60;;;;;;;;;;5064570;28;20514;-65
2022/08/18 03:29:57;;;;;;;12.13;6.03;;;;;;;;;;5068592;28;20048;-65
2022/08/18 03:32:24;;;;;;;17.48;6.75;;;;;;;;;;5059217;28;20049;-65
2022/08/18 03:34:51;;;;;;;21.10;5.68;;;;;;;;;;5063950;28;20105;-65
2022/08/18 03:37:18;;;;;;;14.95;6.05;;;;;;;;;;5067559;28;20060;-65
2022/08/18 03:39:45;;;;;;;15.93;6.72;;;;;;;;;;5064531;28;20060;-65
2022/08/18 03:42:15;;;;;;;20.38;6.80;;;;;;;;;;5062533;28;20524;-65
2022/08/18 03:44:42;;;;;;;15.07;6.18;;;;;;;;;;5067534;28;20144;-65
2022/08/18 03:47:10;;;;;;;17.10;6.53;;;;;;;;;;5063221;28;20052;-65
2022/08/18 03:49:38;;;;;;;12.60;6.50;;;;;;;;;;5064698;28;20128;-65
2022/08/18 03:52:08;;;;;;;15.02;7.63;;;;;;;;;;5057821;28;20052;-65
2022/08/18 03:54:37;;;;;;;14.07;7.28;;;;;;;;;;5055830;28;20095;-65
2022/08/18 03:57:05;;;;;;;13.00;7.40;;;;;;;;;;5062084;28;20052;-65
2022/08/18 03:59:33;;;;;;;13.00;6.30;;;;;;;;;;5066848;28;20052;-65
2022/08/18 04:02:03;;;;;;;17.05;7.75;;;;;;;;;;5062688;28;20173;-65
2022/08/18 04:04:30;;;;;;;14.80;7.40;;;;;;;;;;5063955;28;20501;-65
2022/08/18 04:06:58;;;;;;;20.00;7.57;;;;;;;;;;5062389;28;20056;-65
2022/08/18 04:09:27;;;;;;;16.05;8.30;;;;;;;;;;5055645;28;20683;-65
2022/08/18 04:11:55;;;;;;;15.55;8.05;;;;;;;;;;5057129;28;20148;-65
2022/08/18 04:14:24;;;;;;;25.50;10.20;;;;;;;;;;5061761;28;20486;-65
2022/08/18 04:16:52;;;;;;;17.50;7.97;;;;;;;;;;5069257;28;20401;-65
2022/08/18 04:19:20;;;;;;;26.23;10.98;;;;;;;;;;5063445;28;20111;-65
2022/08/18 04:21:52;;;;;;;18.65;9.25;;;;;;;;;;5065741;28;20053;-66
2022/08/18 04:24:19;;;;;;;20.30;8.27;;;;;;;;;;5056681;28;20055;-65
2022/08/18 04:26:47;;;;;;;24.45;9.05;;;;;;;;;;5059849;28;20067;-63
2022/08/18 04:29:15;;;;;;;13.88;7.05;;;;;;;;;;5061768;28;20040;-63
2022/08/18 04:31:43;;;;;;;18.73;6.63;;;;;;;;;;5059929;28;20124;-63
2022/08/18 04:34:12;;;;;;;21.38;6.07;;;;;;;;;;5058190;28;20056;-63
2022/08/18 04:36:40;;;;;;;13.60;4.30;;;;;;;;;;5051857;28;20072;-63
2022/08/18 04:39:09;;;;;;;24.30;5.65;;;;;;;;;;5062773;28;20041;-63
2022/08/18 04:41:37;;;;;;;36.38;7.68;;;;;;;;;;5055094;28;20044;-63
2022/08/18 04:44:05;;;;;;;15.93;4.50;;;;;;;;;;5060545;28;20055;-63
2022/08/18 04:46:36;;;;;;;45.47;9.07;;;;;;;;;;5064057;28;20510;-63
2022/08/18 04:49:03;;;;;;;21.10;5.55;;;;;;;;;;5060437;28;20083;-63
2022/08/18 04:51:32;;;;;;;18.40;6.40;;;;;;;;;;5062089;28;20079;-63
2022/08/18 04:53:59;;;;;;;17.67;5.32;;;;;;;;;;5060469;28;20048;-63
2022/08/18 04:56:28;;;;;;;19.05;4.95;;;;;;;;;;5056445;28;20109;-63
2022/08/18 04:58:56;;;;;;;23.13;6.25;;;;;;;;;;5058638;28;20080;-63
2022/08/18 05:01:24;;;;;;;15.90;5.15;;;;;;;;;;5064677;28;20136;-63
2022/08/18 05:03:52;;;;;;;26.60;6.20;;;;;;;;;;5059783;28;20106;-63
2022/08/18 05:06:24;;;;;;;39.03;7.20;;;;;;;;;;5060966;28;20057;-63
2022/08/18 05:08:53;;;;;;;18.67;5.38;;;;;;;;;;5062912;28;20053;-63
2022/08/18 05:11:21;;;;;;;16.15;4.78;;;;;;;;;;5061239;28;20134;-63
2022/08/18 05:13:48;;;;;;;23.25;4.72;;;;;;;;;;5060264;28;20048;-63
2022/08/18 05:16:15;;;;;;;35.00;7.53;;;;;;;;;;5063380;28;20049;-63
2022/08/18 05:18:42;;;;;;;23.35;5.78;;;;;;;;;;5065755;28;20080;-63
2022/08/18 05:21:14;;;;;;;19.92;5.60;;;;;;;;;;5062058;28;20056;-63
2022/08/18 05:23:41;;;;;;;38.63;9.38;;;;;;;;;;5060373;28;20060;-63
2022/08/18 05:26:12;;;;;;;31.20;7.30;;;;;;;;;;5063023;28;20048;-63
2022/08/18 05:28:39;;;;;;;20.95;8.02;;;;;;;;;;5059932;28;20068;-63
2022/08/18 05:31:08;;;;;;;28.40;6.25;;;;;;;;;;5061600;28;20053;-64
2022/08/18 05:33:36;;;;;;;20.38;4.65;;;;;;;;;;5064445;28;20052;-63
2022/08/18 05:36:05;;;;;;;20.77;4.75;;;;;;;;;;5058783;28;20124;-63
2022/08/18 05:38:37;;;;;;;24.65;5.63;;;;;;;;;;5063138;28;20056;-62
2022/08/18 05:41:07;;;;;;;14.38;3.85;;;;;;;;;;5063093;28;20103;-63
2022/08/18 05:43:36;;;;;;;20.45;4.60;;;;;;;;;;5059148;28;20063;-63
2022/08/18 05:46:05;;;;;;;23.85;5.32;;;;;;;;;;5063800;28;20090;-63
2022/08/18 05:48:32;;;;;;;19.38;4.97;;;;;;;;;;5056622;28;20048;-63
2022/08/18 05:51:04;;;;;;;19.83;5.25;;;;;;;;;;5059532;28;20102;-63
2022/08/18 05:59:01;;;;;;;11.48;4.00;;;;;;;;;;5058003;28;20128;-63
2022/08/18 06:01:29;;;;;;;13.27;3.67;;;;;;;;;;5063465;28;20483;-63
2022/08/18 06:04:01;;;;;;;13.05;3.63;;;;;;;;;;5060455;28;20398;-63
2022/08/18 06:06:29;;;;;;;14.00;4.10;;;;;;;;;;5061147;28;20384;-63
2022/08/18 06:08:58;;;;;;;14.48;4.38;;;;;;;;;;5061635;28;20045;-64
2022/08/18 06:11:25;;;;;;;13.75;4.10;;;;;;;;;;5058922;28;20506;-63
2022/08/18 06:13:53;;;;;;;10.27;3.45;;;;;;;;;;5062862;28;20045;-63
2022/08/18 06:16:29;;;;;;;16.30;4.25;;;;;;;;;;5061567;28;20075;-63
2022/08/18 06:19:02;;;;;;;27.95;6.85;;;;;;;;;;5075199;28;20060;-64
2022/08/18 06:21:35;;;;;;;11.13;4.10;;;;;;;;;;5060522;28;20048;-64
2022/08/18 06:24:09;;;;;;;22.33;5.28;;;;;;;;;;5057698;28;20048;-63
2022/08/18 06:26:41;;;;;;;15.05;4.50;;;;;;;;;;5062399;28;20072;-63
2022/08/18 06:29:15;;;;;;;11.95;4.20;;;;;;;;;;5055268;28;20048;-64
2022/08/18 06:31:49;;;;;;;11.70;3.70;;;;;;;;;;5065905;28;20159;-63
2022/08/18 06:34:21;;;;;;;17.35;3.92;;;;;;;;;;5053385;28;20048;-64
2022/08/18 06:36:53;;;;;;;12.77;3.38;;;;;;;;;;5054769;28;20045;-63
2022/08/18 06:39:25;;;;;;;11.75;3.65;;;;;;;;;;5052779;28;20061;-64
2022/08/18 06:41:52;;;;;;;14.35;3.85;;;;;;;;;;5064116;28;20052;-63
2022/08/18 06:44:23;;;;;;;8.57;3.60;;;;;;;;;;5064994;28;20052;-64
2022/08/18 06:46:55;;;;;;;12.13;3.85;;;;;;;;;;5067525;28;20075;-64
2022/08/18 06:49:28;;;;;;;12.83;4.53;;;;;;;;;;5064956;28;20087;-64
2022/08/18 06:51:56;;;;;;;15.38;5.50;;;;;;;;;;5062936;28;20499;-64
2022/08/18 06:54:28;;;;;;;17.60;5.75;;;;;;;;;;5063018;28;20048;-63
2022/08/18 06:56:56;;;;;;;11.85;5.05;;;;;;;;;;5059449;28;20079;-63
2022/08/18 06:59:25;;;;;;;10.18;3.80;;;;;;;;;;5061720;28;20116;-64
2022/08/18 07:01:55;;;;;;;13.02;5.03;;;;;;;;;;5062297;28;20048;-63
2022/08/18 07:04:39;;;;;;;10.98;4.00;;;;;;;;;;5062202;28;20113;-63
2022/08/18 07:07:14;;;;;;;15.13;5.40;;;;;;;;;;5066756;28;20056;-63
2022/08/18 07:09:41;;;;;;;7.35;3.60;;;;;;;;;;5062462;28;20098;-64
2022/08/18 07:12:10;;;;;;;7.05;2.20;;;;;;;;;;5067064;28;20135;-63
2022/08/18 07:14:44;;;;;;;5.95;2.78;;;;;;;;;;5068721;28;20602;-64
2022/08/18 07:17:13;;;;;;;7.97;2.40;;;;;;;;;;5058426;28;20056;-63
2022/08/18 07:19:41;;;;;;;19.17;2.70;;;;;;;;;;5065624;28;20442;-63
2022/08/18 07:22:10;;;;;;;6.30;2.35;;;;;;;;;;5065048;28;20067;-63
2022/08/18 07:24:40;;;;;;;7.57;2.88;;;;;;;;;;5067113;28;20071;-63
2022/08/18 07:27:08;;;;;;;9.52;2.33;;;;;;;;;;5055576;28;20435;-63
2022/08/18 07:29:37;;;;;;;6.03;2.40;;;;;;;;;;5061801;28;20051;-63
2022/08/18 07:32:07;;;;;;;8.48;3.15;;;;;;;;;;5054571;28;20045;-63
2022/08/18 07:34:39;;;;;;;10.90;2.65;;;;;;;;;;5061579;28;20057;-63
2022/08/18 07:37:09;;;;;;;10.13;2.92;;;;;;;;;;5059987;28;20579;-63
2022/08/18 07:39:39;;;;;;;11.98;2.92;;;;;;;;;;5063151;28;20052;-63
2022/08/18 07:42:10;;;;;;;10.00;2.75;;;;;;;;;;5063567;28;20048;-63
2022/08/18 07:44:43;;;;;;;8.57;2.58;;;;;;;;;;5062888;28;20476;-63
2022/08/18 07:47:14;;;;;;;8.75;3.03;;;;;;;;;;5058657;28;20060;-63
2022/08/18 07:49:44;;;;;;;7.57;2.20;;;;;;;;;;5062316;28;20098;-63
2022/08/18 07:52:14;;;;;;;12.48;2.72;;;;;;;;;;5060869;28;20106;-63
2022/08/18 07:54:45;;;;;;;8.38;2.70;;;;;;;;;;5058843;28;20057;-63
2022/08/18 07:57:16;;;;;;;7.18;2.10;;;;;;;;;;5062955;28;20059;-63
2022/08/18 07:59:48;;;;;;;7.50;2.60;;;;;;;;;;5057761;28;20428;-63
2022/08/18 08:02:22;;;;;;;8.80;2.00;;;;;;;;;;5058454;28;20110;-63
2022/08/18 08:04:55;;;;;;;7.47;1.60;;;;;;;;;;5063386;28;20090;-63
2022/08/18 08:07:24;;;;;;;4.22;1.80;;;;;;;;;;5064942;28;20056;-63
2022/08/18 08:09:58;;;;;;;9.80;1.95;;;;;;;;;;5057841;28;20043;-63
2022/08/18 08:12:30;;;;;;;8.35;1.75;;;;;;;;;;5060866;28;20818;-63
2022/08/18 08:15:01;;;;;;;5.18;1.65;;;;;;;;;;5060248;28;20040;-63
2022/08/18 08:17:31;;;;;;;5.72;1.90;;;;;;;;;;5059621;28;20093;-63
2022/08/18 08:20:07;;;;;;;4.70;1.35;;;;;;;;;;5063890;28;20048;-63
2022/08/18 08:22:37;;;;;;;3.92;1.50;;;;;;;;;;5059772;28;20098;-63
2022/08/18 08:25:07;;;;;;;8.43;1.40;;;;;;;;;;5064029;28;20052;-63
2022/08/18 08:27:42;;;;;;;5.15;1.58;;;;;;;;;;5061094;28;20048;-64
2022/08/18 08:30:13;;;;;;;3.25;1.20;;;;;;;;;;5062672;28;20399;-64
2022/08/18 08:32:45;;;;;;;4.85;2.00;;;;;;;;;;5058460;28;20721;-63
2022/08/18 08:35:15;;;;;;;6.80;1.67;;;;;;;;;;5060915;28;20060;-63
2022/08/18 08:37:44;;;;;;;9.63;1.95;;;;;;;;;;5057691;28;20106;-64
2022/08/18 08:40:15;;;;;;;7.80;2.03;;;;;;;;;;5064067;28;20056;-64
2022/08/18 08:42:44;;;;;;;4.75;1.50;;;;;;;;;;5057915;28;20459;-64
2022/08/18 08:45:14;;;;;;;6.90;1.70;;;;;;;;;;5061494;28;20060;-63
2022/08/18 08:47:43;;;;;;;5.45;1.50;;;;;;;;;;5055761;28;20048;-64
2022/08/18 08:50:13;;;;;;;5.22;1.40;;;;;;;;;;5060114;28;20056;-63
2022/08/18 08:52:44;;;;;;;6.45;1.83;;;;;;;;;;5057864;28;20049;-64
2022/08/18 08:55:13;;;;;;;5.70;1.83;;;;;;;;;;5058177;28;20132;-64
2022/08/18 08:57:43;;;;;;;4.05;1.33;;;;;;;;;;5059239;28;20052;-64
2022/08/18 09:00:13;;;;;;;4.30;1.45;;;;;;;;;;5065045;28;20059;-63
2022/08/18 09:02:58;;;;;;;5.65;1.60;;;;;;;;;;5059664;28;20057;-64
2022/08/18 09:05:27;;;;;;;4.30;1.85;;;;;;;;;;5059057;28;20440;-64
2022/08/18 09:08:04;;;;;;;4.60;1.90;;;;;;;;;;5057516;28;20048;-64
2022/08/18 09:10:39;;;;;;;6.20;1.35;;;;;;;;;;5058630;28;20083;-64
2022/08/18 09:13:12;;;;;;;7.00;1.60;;;;;;;;;;5059569;28;20044;-64
2022/08/18 09:15:45;;;;;;;5.93;1.33;;;;;;;;;;5056001;28;20064;-64
2022/08/18 09:18:31;;;;;;;5.93;1.27;;;;;;;;;;5058216;28;20048;-64
2022/08/18 09:21:04;;;;;;;5.03;1.30;;;;;;;;;;5062621;28;20055;-63
2022/08/18 09:23:33;;;;;;;5.25;1.20;;;;;;;;;;5060025;28;20124;-64
2022/08/18 09:26:21;;;;;;;6.60;1.58;;;;;;;;;;5062915;28;20057;-64
2022/08/18 09:28:56;;;;;;;5.43;1.45;;;;;;;;;;5061216;28;20158;-63
2022/08/18 09:31:23;;;;;;;5.78;1.67;;;;;;;;;;5057658;28;20634;-64
2022/08/18 09:33:57;;;;;;;5.25;1.60;;;;;;;;;;5062492;28;20710;-64
2022/08/18 09:36:31;;;;;;;5.45;1.45;;;;;;;;;;5056307;28;20098;-63
2022/08/18 09:41:55;;;;;;;5.32;1.30;;;;;;;;;;5058887;28;20082;-64
2022/08/18 09:44:40;;;;;;;4.45;1.50;;;;;;;;;;5062141;28;20059;-64
2022/08/18 09:47:08;;;;;;;7.63;1.30;;;;;;;;;;5058805;28;20059;-64
2022/08/18 09:49:52;;;;;;;4.82;1.58;;;;;;;;;;5056845;28;20088;-64
2022/08/18 09:52:38;;;;;;;4.88;1.35;;;;;;;;;;5053420;28;20045;-63
2022/08/18 09:55:08;;;;;;;4.18;1.25;;;;;;;;;;5064605;28;20044;-63
2022/08/18 09:57:39;;;;;;;5.60;1.00;;;;;;;;;;5058214;28;20747;-64
2022/08/18 10:00:21;;;;;;;5.90;1.40;;;;;;;;;;5057907;28;20048;-64
2022/08/18 10:03:03;;;;;;;5.22;1.42;;;;;;;;;;5061259;28;20057;-64
2022/08/18 10:05:31;;;;;;;5.20;1.42;;;;;;;;;;5059449;28;20110;-64
2022/08/18 10:08:13;;;;;;;7.35;1.58;;;;;;;;;;5063029;28;20147;-64
2022/08/18 10:10:48;;;;;;;4.72;1.40;;;;;;;;;;5061334;28;20049;-64
2022/08/18 10:13:20;;;;;;;3.88;1.33;;;;;;;;;;5064622;28;20426;-64
2022/08/18 10:15:52;;;;;;;4.65;1.30;;;;;;;;;;5061862;28;20046;-64
2022/08/18 10:18:33;;;;;;;8.93;1.25;;;;;;;;;;5063481;28;20040;-64
2022/08/18 10:21:08;;;;;;;2.50;1.15;;;;;;;;;;5061723;28;20482;-63
2022/08/18 10:23:57;;;;;;;2.53;1.08;;;;;;;;;;5063124;28;20139;-64
2022/08/18 10:26:43;;;;;;;2.80;1.00;;;;;;;;;;5061681;28;20060;-64
2022/08/18 10:29:12;;;;;;;3.00;0.90;;;;;;;;;;5065016;28;20059;-64
2022/08/18 10:31:54;;;;;;;2.47;1.20;;;;;;;;;;5064972;28;20075;-64
2022/08/18 10:34:36;;;;;;;1.92;1.00;;;;;;;;;;5064753;28;20061;-64
2022/08/18 10:37:04;;;;;;;2.45;0.80;;;;;;;;;;5054994;28;20056;-63
2022/08/18 10:39:44;;;;;;;7.68;2.30;;;;;;;;;;5062104;28;20045;-64
2022/08/18 10:42:14;;;;;;;6.50;0.98;;;;;;;;;;5065327;28;20507;-64
2022/08/18 10:44:44;;;;;;;3.13;0.85;;;;;;;;;;5063499;28;20106;-63
2022/08/18 10:47:20;;;;;;;4.22;1.42;;;;;;;;;;5065126;28;20129;-64
2022/08/18 10:49:49;;;;;;;4.43;0.90;;;;;;;;;;5059774;28;20040;-64
2022/08/18 10:52:31;;;;;;;2.28;0.90;;;;;;;;;;5058965;28;20080;-64
2022/08/18 10:55:03;;;;;;;1.30;0.65;;;;;;;;;;5060680;28;20056;-64
2022/08/18 10:57:33;;;;;;;3.23;0.80;;;;;;;;;;5054961;28;20419;-64
2022/08/18 11:00:04;;;;;;;4.28;1.02;;;;;;;;;;5063859;28;20162;-64
2022/08/18 11:02:38;;;;;;;2.15;0.80;;;;;;;;;;5069094;28;20048;-64
2022/08/18 11:05:07;;;;;;;4.90;1.10;;;;;;;;;;5070555;28;20161;-64
2022/08/18 11:07:37;;;;;;;6.65;1.42;;;;;;;;;;5079143;28;20044;-64
2022/08/18 11:10:16;;;;;;;2.70;0.90;;;;;;;;;;5067700;28;20148;-63
2022/08/18 11:12:54;;;;;;;3.15;0.98;;;;;;;;;;5061187;28;20049;-64
2022/08/18 11:15:25;;;;;;;3.53;1.27;;;;;;;;;;5063944;28;20631;-64
2022/08/18 11:18:00;;;;;;;2.63;1.00;;;;;;;;;;5064769;28;20171;-64
2022/08/18 11:20:30;;;;;;;4.35;1.15;;;;;;;;;;5067398;28;20114;-64
2022/08/18 11:22:58;;;;;;;2.05;1.00;;;;;;;;;;5059974;28;20052;-64
2022/08/18 11:25:27;;;;;;;3.97;1.40;;;;;;;;;;5055106;28;20599;-64
2022/08/18 11:27:55;;;;;;;2.47;1.20;;;;;;;;;;5062428;28;20052;-64
2022/08/18 11:30:24;;;;;;;1.88;0.90;;;;;;;;;;5065699;28;20136;-64
2022/08/18 11:32:51;;;;;;;4.80;1.08;;;;;;;;;;5061874;28;20059;-64
2022/08/18 11:35:20;;;;;;;4.45;1.20;;;;;;;;;;5065494;28;20067;-64
2022/08/18 11:37:48;;;;;;;2.78;1.10;;;;;;;;;;5063927;28;20048;-64
2022/08/18 11:40:26;;;;;;;4.93;1.27;;;;;;;;;;5066719;28;20534;-64
2022/08/18 11:42:55;;;;;;;5.32;1.30;;;;;;;;;;5061559;28;20060;-64
2022/08/18 11:45:25;;;;;;;3.13;1.13;;;;;;;;;;5067710;28;20074;-63
2022/08/18 11:48:03;;;;;;;2.33;1.20;;;;;;;;;;5067239;28;20049;-63
2022/08/18 11:50:32;;;;;;;2.60;1.30;;;;;;;;;;5059961;28;20053;-64
2022/08/18 11:53:14;;;;;;;4.63;1.80;;;;;;;;;;5052378;28;20058;-64
2022/08/18 11:55:41;;;;;;;3.87;1.10;;;;;;;;;;5064114;28;20045;-64
2022/08/18 11:58:08;;;;;;;2.78;1.15;;;;;;;;;;5061351;28;20097;-64
2022/08/18 12:00:42;;;;;;;2.63;1.10;;;;;;;;;;5062528;28;20044;-64
2022/08/18 12:03:14;;;;;;;3.95;1.13;;;;;;;;;;5065011;28;20045;-64
2022/08/18 12:05:45;;;;;;;2.17;1.27;;;;;;;;;;5064936;28;20439;-64
2022/08/18 12:08:21;;;;;;;2.55;1.10;;;;;;;;;;5058804;28;20383;-64
2022/08/18 12:10:49;;;;;;;5.82;1.35;;;;;;;;;;5058265;28;20075;-64
2022/08/18 12:13:22;;;;;;;2.65;1.15;;;;;;;;;;5063539;28;20097;-64
2022/08/18 12:16:08;;;;;;;5.45;1.50;;;;;;;;;;5063685;28;20057;-64
2022/08/18 12:18:35;;;;;;;2.67;1.40;;;;;;;;;;5061411;28;20109;-64
2022/08/18 12:21:02;;;;;;;4.63;1.38;;;;;;;;;;5064659;28;20045;-64
2022/08/18 12:23:30;;;;;;;4.38;1.63;;;;;;;;;;5062488;28;20067;-64
2022/08/18 12:25:57;;;;;;;5.00;1.25;;;;;;;;;;5059351;28;20059;-65
2022/08/18 12:28:25;;;;;;;4.68;1.30;;;;;;;;;;5062465;28;20057;-64
2022/08/18 12:30:54;;;;;;;2.45;1.13;;;;;;;;;;5061360;28;20205;-64
2022/08/18 12:33:21;;;;;;;2.15;1.08;;;;;;;;;;5065305;28;20044;-65
2022/08/18 12:35:48;;;;;;;2.05;1.52;;;;;;;;;;5063449;28;20068;-65
2022/08/18 12:38:16;;;;;;;3.05;1.50;;;;;;;;;;5065039;28;20056;-64
2022/08/18 12:40:44;;;;;;;2.83;1.50;;;;;;;;;;5062393;28;20587;-65
2022/08/18 12:43:11;;;;;;;3.80;1.58;;;;;;;;;;5063282;28;20469;-65
2022/08/18 12:45:39;;;;;;;3.47;1.58;;;;;;;;;;5064866;28;20423;-65
2022/08/18 12:48:07;;;;;;;5.10;1.42;;;;;;;;;;5061697;28;20040;-65
2022/08/18 12:50:35;;;;;;;5.57;1.60;;;;;;;;;;5063745;28;20056;-65
2022/08/18 12:53:03;;;;;;;4.10;1.52;;;;;;;;;;5060895;28;20045;-65
2022/08/18 12:55:34;;;;;;;4.95;1.60;;;;;;;;;;5064718;28;20040;-66
2022/08/18 12:58:02;;;;;;;3.58;1.60;;;;;;;;;;5064092;28;20114;-66
2022/08/18 13:00:29;;;;;;;3.65;1.67;;;;;;;;;;5066801;28;20053;-66
2022/08/18 13:02:58;;;;;;;3.55;1.48;;;;;;;;;;5062534;28;20075;-65
2022/08/18 13:05:27;;;;;;;5.15;1.42;;;;;;;;;;5061343;28;20055;-65
2022/08/18 13:07:54;;;;;;;4.20;1.90;;;;;;;;;;5060919;28;20044;-65
2022/08/18 13:10:21;;;;;;;2.78;1.40;;;;;;;;;;5060856;28;20048;-66
2022/08/18 13:12:49;;;;;;;3.92;1.50;;;;;;;;;;5061504;28;20110;-66
2022/08/18 13:15:16;;;;;;;3.08;1.50;;;;;;;;;;5060901;28;20075;-66
2022/08/18 13:17:44;;;;;;;3.92;1.38;;;;;;;;;;5057291;28;20687;-65
2022/08/18 13:20:12;;;;;;;3.63;1.40;;;;;;;;;;5058577;28;20094;-65
2022/08/18 13:22:41;;;;;;;3.15;1.20;;;;;;;;;;5062544;28;20105;-65
2022/08/18 13:25:10;;;;;;;5.90;1.90;;;;;;;;;;5057099;28;20044;-65
2022/08/18 13:27:38;;;;;;;3.08;1.80;;;;;;;;;;5060687;28;20052;-65
2022/08/18 13:30:08;;;;;;;3.42;1.52;;;;;;;;;;5063518;28;20051;-65
2022/08/18 13:32:35;;;;;;;4.10;1.52;;;;;;;;;;5059789;28;20052;-65
2022/08/18 13:35:03;;;;;;;4.90;1.70;;;;;;;;;;5058174;28;20049;-66
2022/08/18 13:37:30;;;;;;;2.80;1.45;;;;;;;;;;5063043;28;20730;-65
2022/08/18 13:39:59;;;;;;;5.10;1.45;;;;;;;;;;5065122;28;20062;-65
2022/08/18 13:42:28;;;;;;;3.80;1.80;;;;;;;;;;5059723;28;20619;-65
2022/08/18 13:44:57;;;;;;;7.63;1.70;;;;;;;;;;5060756;28;20106;-65
2022/08/18 13:47:28;;;;;;;5.22;2.00;;;;;;;;;;5060003;28;20048;-66
2022/08/18 13:49:55;;;;;;;2.35;1.70;;;;;;;;;;5060818;28;20160;-65
2022/08/18 13:52:23;;;;;;;2.72;1.50;;;;;;;;;;5058420;28;20044;-66
2022/08/18 13:54:50;;;;;;;4.00;1.73;;;;;;;;;;5065333;28;20048;-66
2022/08/18 13:57:19;;;;;;;3.22;1.60;;;;;;;;;;5058651;28;20052;-66
2022/08/18 13:59:46;;;;;;;5.10;1.63;;;;;;;;;;5062803;28;20066;-65
2022/08/18 14:02:13;;;;;;;4.90;2.05;;;;;;;;;;5061914;28;20048;-65
2022/08/18 14:04:41;;;;;;;8.02;2.05;;;;;;;;;;5062393;28;20049;-65
2022/08/18 14:07:09;;;;;;;5.03;1.60;;;;;;;;;;5059665;28;20044;-65
2022/08/18 14:09:36;;;;;;;4.00;1.65;;;;;;;;;;5059867;28;20045;-66
2022/08/18 14:12:05;;;;;;;5.00;1.65;;;;;;;;;;5059611;28;20040;-66
2022/08/18 14:14:34;;;;;;;3.50;1.50;;;;;;;;;;5061507;28;20097;-66
2022/08/18 14:17:01;;;;;;;3.45;1.80;;;;;;;;;;5063332;28;20066;-66
2022/08/18 14:27:42;;;;;;;4.07;1.83;;;;;;;;;;5057213;28;20087;-66
2022/08/18 14:30:13;;;;;;;5.40;1.90;;;;;;;;;;5060917;28;20052;-66
2022/08/18 14:32:41;;;;;;;4.70;1.80;;;;;;;;;;5062452;28;20051;-66
2022/08/18 14:35:09;;;;;;;2.90;1.60;;;;;;;;;;5060651;28;20053;-66
2022/08/18 14:37:36;;;;;;;5.05;1.58;;;;;;;;;;5054019;28;20057;-66
2022/08/18 14:40:04;;;;;;;5.82;1.67;;;;;;;;;;5060195;28;20056;-66
2022/08/18 14:42:32;;;;;;;4.80;1.90;;;;;;;;;;5064812;28;20137;-66
2022/08/18 14:44:59;;;;;;;3.15;1.70;;;;;;;;;;5062888;28;20051;-66
2022/08/18 14:47:27;;;;;;;6.00;2.10;;;;;;;;;;5058586;28;20435;-65
2022/08/18 14:49:56;;;;;;;6.07;2.05;;;;;;;;;;5059043;28;20055;-66
2022/08/18 14:52:23;;;;;;;4.03;1.90;;;;;;;;;;5060523;28;20102;-66
2022/08/18 14:54:50;;;;;;;4.70;2.10;;;;;;;;;;5061271;28;20101;-67
2022/08/18 14:57:17;;;;;;;5.97;1.90;;;;;;;;;;5054722;28;20048;-66
2022/08/18 14:59:45;;;;;;;6.38;2.10;;;;;;;;;;5056391;28;20090;-66
2022/08/18 15:02:13;;;;;;;3.70;1.88;;;;;;;;;;5060803;28;20052;-66
2022/08/18 15:04:43;;;;;;;4.30;1.70;;;;;;;;;;5066664;28;20071;-66
2022/08/18 15:07:10;;;;;;;6.60;1.90;;;;;;;;;;5058400;28;20048;-66
2022/08/18 15:09:38;;;;;;;3.60;2.00;;;;;;;;;;5057400;28;20044;-66
2022/08/18 15:12:06;;;;;;;3.47;2.00;;;;;;;;;;5060884;28;20435;-66
2022/08/18 15:14:34;;;;;;;4.57;1.85;;;;;;;;;;5062012;28;20048;-66